createdAt,value
2023-03-03T00:01:16.396Z,81.39
2023-03-03T00:04:19.307Z,82.15
2023-03-03T00:07:23.350Z,82.49
2023-03-03T00:10:26.383Z,82.21
2023-03-03T00:13:31.898Z,82.30
2023-03-03T00:16:38.802Z,81.68
2023-03-03T00:19:42.307Z,81.38
2023-03-03T00:22:45.079Z,81.81
2023-03-03T00:25:50.262Z,82.00
2023-03-03T00:28:54.604Z,81.95
2023-03-03T00:32:23.803Z,82.00
2023-03-03T00:35:30.453Z,82.28
2023-03-03T00:38:35.806Z,83.03
2023-03-03T00:41:39.682Z,83.02
2023-03-03T00:44:45.375Z,83.11
2023-03-03T00:47:48.273Z,82.92
2023-03-03T00:50:53.296Z,82.57
2023-03-03T00:53:57.703Z,81.97
2023-03-03T00:57:00.156Z,81.63
2023-03-03T01:00:04.685Z,82.14
2023-03-03T01:03:11.249Z,83.05
2023-03-03T01:06:15.367Z,83.88
2023-03-03T01:09:18.882Z,83.86
2023-03-03T01:12:21.957Z,84.66
2023-03-03T01:15:24.722Z,84.60
2023-03-03T01:18:28.590Z,84.14
2023-03-03T01:21:31.115Z,84.16
2023-03-03T01:24:34.020Z,83.96
2023-03-03T01:27:36.749Z,83.90
2023-03-03T01:30:39.996Z,83.74
2023-03-03T01:33:42.719Z,83.60
2023-03-03T01:36:45.579Z,82.24
2023-03-03T01:39:51.191Z,83.07
2023-03-03T01:42:54.311Z,83.31
2023-03-03T01:45:57.283Z,82.85
2023-03-03T01:49:08.319Z,83.30
2023-03-03T01:52:27.407Z,83.97
2023-03-03T01:55:41.434Z,84.48
2023-03-03T01:58:51.378Z,84.50
2023-03-03T02:01:54.505Z,84.40
2023-03-03T02:04:57.510Z,84.18
2023-03-03T02:08:00.125Z,84.29
2023-03-03T02:11:04.874Z,83.89
2023-03-03T02:14:07.820Z,83.50
2023-03-03T02:17:10.889Z,83.55
2023-03-03T02:20:29.202Z,83.83
2023-03-03T02:23:57.842Z,83.85
2023-03-03T02:27:01.540Z,83.73
2023-03-03T02:30:17.345Z,83.85
2023-03-03T02:33:20.141Z,84.06
2023-03-03T02:36:25.172Z,84.40
2023-03-03T02:39:30.602Z,84.42
2023-03-03T02:42:33.651Z,84.98
2023-03-03T02:45:42.704Z,84.96
2023-03-03T02:48:45.217Z,84.77
2023-03-03T02:51:48.456Z,84.15
2023-03-03T02:54:51.593Z,84.47
2023-03-03T02:57:54.549Z,84.28
2023-03-03T03:00:57.244Z,83.98
2023-03-03T03:04:00.413Z,84.06
2023-03-03T03:07:03.669Z,84.13
2023-03-03T03:10:07.663Z,84.60
2023-03-03T03:13:11.962Z,85.23
2023-03-03T03:16:15.139Z,85.03
2023-03-03T03:19:17.763Z,84.98
2023-03-03T03:22:20.849Z,84.92
2023-03-03T03:25:23.599Z,84.78
2023-03-03T03:28:26.920Z,85.07
2023-03-03T03:31:30.069Z,84.29
2023-03-03T03:34:33.087Z,84.90
2023-03-03T03:37:35.724Z,85.09
2023-03-03T03:40:39.772Z,85.35
2023-03-03T03:43:42.987Z,85.82
2023-03-03T03:46:45.925Z,86.29
2023-03-03T03:49:48.687Z,86.21
2023-03-03T03:52:51.833Z,86.25
2023-03-03T03:56:01.041Z,85.24
2023-03-03T03:59:06.993Z,86.55
2023-03-03T04:02:09.807Z,86.68
2023-03-03T04:05:13.356Z,87.04
2023-03-03T04:08:16.224Z,87.13
2023-03-03T04:11:20.006Z,86.44
2023-03-03T04:14:22.742Z,86.63
2023-03-03T04:17:25.523Z,86.72
2023-03-03T04:20:29.078Z,86.63
2023-03-03T04:23:32.220Z,86.35
2023-03-03T04:26:35.614Z,86.38
2023-03-03T04:29:39.127Z,86.12
2023-03-03T04:32:42.070Z,86.27
2023-03-03T04:35:45.607Z,86.18
2023-03-03T04:38:49.188Z,86.09
2023-03-03T04:41:52.119Z,85.35
2023-03-03T04:44:55.963Z,85.18
2023-03-03T04:47:59.285Z,85.32
2023-03-03T04:51:01.923Z,85.64
2023-03-03T04:54:10.883Z,85.67
2023-03-03T04:57:13.930Z,85.67
2023-03-03T05:00:18.248Z,85.58
2023-03-03T05:03:21.288Z,85.68
2023-03-03T05:06:25.253Z,85.77
2023-03-03T05:09:27.823Z,85.76
2023-03-03T05:12:30.873Z,85.91
2023-03-03T05:15:33.504Z,85.46
2023-03-03T05:18:37.917Z,85.67
2023-03-03T05:21:42.885Z,85.89
2023-03-03T05:24:49.184Z,86.18
2023-03-03T05:27:51.735Z,86.37
2023-03-03T05:30:54.616Z,86.14
2023-03-03T05:33:57.246Z,86.47
2023-03-03T05:37:00.117Z,86.53
2023-03-03T05:40:06.752Z,85.45
2023-03-03T05:43:10.024Z,86.24
2023-03-03T05:46:12.824Z,86.67
2023-03-03T05:49:15.753Z,86.53
2023-03-03T05:52:18.597Z,86.70
2023-03-03T05:55:21.570Z,87.01
2023-03-03T05:58:24.292Z,86.73
2023-03-03T06:01:28.600Z,86.51
2023-03-03T06:04:31.489Z,86.47
2023-03-03T06:07:34.256Z,86.45
2023-03-03T06:10:37.452Z,86.37
2023-03-03T06:13:42.711Z,86.93
2023-03-03T06:16:45.776Z,87.20
2023-03-03T06:19:50.917Z,87.26
2023-03-03T06:22:53.856Z,87.18
2023-03-03T06:25:56.415Z,87.16
2023-03-03T06:28:59.959Z,87.75
2023-03-03T06:32:02.615Z,87.79
2023-03-03T06:35:05.999Z,87.72
2023-03-03T06:38:08.568Z,88.26
2023-03-03T06:41:11.607Z,87.98
2023-03-03T06:44:14.131Z,87.92
2023-03-03T06:47:17.177Z,87.87
2023-03-03T06:50:20.988Z,87.79
2023-03-03T06:53:24.239Z,87.97
2023-03-03T06:56:27.682Z,88.32
2023-03-03T06:59:30.503Z,88.14
2023-03-03T07:02:35.183Z,88.23
2023-03-03T07:05:38.150Z,88.54
2023-03-03T07:08:41.489Z,88.79
2023-03-03T07:11:46.588Z,88.76
2023-03-03T07:15:03.903Z,88.73
2023-03-03T07:18:52.615Z,88.20
2023-03-03T07:21:55.361Z,88.17
2023-03-03T07:25:03.008Z,88.77
2023-03-03T07:28:28.124Z,90.18
2023-03-03T07:31:35.441Z,91.04
2023-03-03T07:34:40.991Z,90.78
2023-03-03T07:37:43.944Z,91.30
2023-03-03T07:40:55.743Z,91.92
2023-03-03T07:44:18.134Z,92.03
2023-03-03T07:47:28.696Z,92.35
2023-03-03T07:50:32.370Z,92.55
2023-03-03T07:53:36.494Z,92.34
2023-03-03T07:56:39.553Z,92.05
2023-03-03T08:00:01.562Z,92.08
2023-03-03T08:03:11.573Z,91.60
2023-03-03T08:06:36.390Z,91.72
2023-03-03T08:09:49.137Z,90.77
2023-03-03T08:13:26.217Z,90.84
2023-03-03T08:16:37.696Z,90.37
2023-03-03T08:19:40.558Z,89.81
2023-03-03T08:22:43.604Z,89.66
2023-03-03T08:25:47.805Z,89.21
2023-03-03T08:28:50.734Z,89.17
2023-03-03T08:31:53.754Z,89.32
2023-03-03T08:35:02.062Z,88.51
2023-03-03T08:38:06.683Z,87.82
2023-03-03T08:41:10.022Z,88.27
2023-03-03T08:44:14.684Z,88.08
2023-03-03T08:47:17.415Z,87.60
2023-03-03T08:50:20.879Z,87.70
2023-03-03T08:53:24.352Z,87.71
2023-03-03T08:56:28.109Z,86.88
2023-03-03T08:59:31.166Z,86.66
2023-03-03T09:02:34.167Z,86.20
2023-03-03T09:05:38.665Z,85.80
2023-03-03T09:08:45.271Z,85.15
2023-03-03T09:11:47.963Z,84.91
2023-03-03T09:14:51.581Z,84.16
2023-03-03T09:17:55.448Z,82.63
2023-03-03T09:20:58.446Z,81.74
2023-03-03T09:24:01.341Z,80.72
2023-03-03T09:27:15.773Z,80.57
2023-03-03T09:30:42.687Z,80.05
2023-03-03T09:33:47.360Z,79.87
2023-03-03T09:36:51.762Z,79.47
2023-03-03T09:39:56.088Z,78.58
2023-03-03T09:43:24.116Z,77.62
2023-03-03T09:46:58.140Z,74.94
2023-03-03T09:50:16.128Z,73.96
2023-03-03T09:53:25.953Z,73.52
2023-03-03T09:56:31.401Z,73.43
2023-03-03T09:59:47.067Z,72.46
2023-03-03T10:03:04.443Z,70.53
2023-03-03T10:06:16.468Z,70.07
2023-03-03T10:09:37.975Z,68.94
2023-03-03T10:13:14.464Z,69.15
2023-03-03T10:16:31.674Z,68.12
2023-03-03T10:19:46.459Z,66.80
2023-03-03T10:22:56.535Z,66.11
2023-03-03T10:26:20.294Z,65.73
2023-03-03T10:30:01.103Z,64.80
2023-03-03T10:33:06.900Z,64.49
2023-03-03T10:36:20.060Z,62.90
2023-03-03T10:40:00.422Z,63.37
2023-03-03T10:43:11.293Z,61.96
2023-03-03T10:46:34.995Z,61.93
2023-03-03T10:49:43.647Z,61.00
2023-03-03T10:53:09.174Z,60.67
2023-03-03T10:56:11.715Z,60.89
2023-03-03T10:59:27.358Z,61.45
2023-03-03T11:02:47.606Z,60.44
2023-03-03T11:06:12.296Z,59.17
2023-03-03T11:09:21.009Z,58.12
2023-03-03T11:12:47.667Z,59.86
2023-03-03T11:15:59.783Z,58.34
2023-03-03T11:19:06.089Z,58.28
2023-03-03T11:22:24.071Z,58.82
2023-03-03T11:25:45.504Z,57.58
2023-03-03T11:29:06.801Z,57.85
2023-03-03T11:32:33.443Z,56.41
2023-03-03T11:36:09.469Z,57.00
2023-03-03T11:39:16.818Z,57.47
2023-03-03T11:42:30.588Z,56.42
2023-03-03T11:45:45.920Z,54.88
2023-03-03T11:49:19.038Z,54.96
2023-03-03T11:52:32.557Z,54.88
2023-03-03T11:55:40.262Z,55.02
2023-03-03T11:58:48.703Z,54.03
2023-03-03T12:02:02.475Z,53.35
2023-03-03T12:05:10.237Z,54.51
2023-03-03T12:08:18.908Z,53.85
2023-03-03T12:11:28.616Z,54.50
2023-03-03T12:14:52.471Z,54.89
2023-03-03T12:17:58.351Z,54.83
2023-03-03T12:21:04.141Z,53.48
2023-03-03T12:24:25.709Z,52.93
2023-03-03T12:27:55.901Z,53.92
2023-03-03T12:30:59.191Z,52.55
2023-03-03T12:34:17.027Z,53.15
2023-03-03T12:37:29.203Z,52.49
2023-03-03T12:40:34.422Z,52.47
2023-03-03T12:43:44.076Z,51.56
2023-03-03T12:47:06.818Z,51.39
2023-03-03T12:50:09.826Z,51.55
2023-03-03T12:53:28.707Z,52.19
2023-03-03T12:56:46.310Z,52.41
2023-03-03T13:00:34.683Z,51.32
2023-03-03T13:03:55.306Z,51.80
2023-03-03T13:07:06.399Z,51.89
2023-03-03T13:10:32.768Z,52.01
2023-03-03T13:13:52.727Z,51.48
2023-03-03T13:17:04.194Z,52.27
2023-03-03T13:20:15.912Z,52.30
2023-03-03T13:23:42.135Z,52.61
2023-03-03T13:26:46.614Z,52.99
2023-03-03T13:29:59.051Z,53.01
2023-03-03T13:33:17.203Z,51.70
2023-03-03T13:36:20.797Z,51.83
2023-03-03T13:39:28.461Z,51.00
2023-03-03T13:42:39.451Z,50.03
2023-03-03T13:46:05.622Z,50.35
2023-03-03T13:49:23.094Z,51.03
2023-03-03T13:52:28.836Z,51.67
2023-03-03T13:55:34.963Z,51.79
2023-03-03T13:59:02.125Z,52.69
2023-03-03T14:02:35.827Z,51.40
2023-03-03T14:05:45.572Z,52.03
2023-03-03T14:09:02.108Z,52.41
2023-03-03T14:12:14.996Z,52.23
2023-03-03T14:15:28.961Z,52.61
2023-03-03T14:18:54.759Z,51.94
2023-03-03T14:22:15.914Z,52.37
2023-03-03T14:25:18.956Z,52.50
2023-03-03T14:28:24.165Z,52.10
2023-03-03T14:31:31.079Z,52.37
2023-03-03T14:34:33.581Z,52.50
2023-03-03T14:37:44.745Z,53.79
2023-03-03T14:40:48.536Z,52.51
2023-03-03T14:44:00.256Z,52.32
2023-03-03T14:47:08.921Z,52.34
2023-03-03T14:50:32.050Z,52.09
2023-03-03T14:53:37.692Z,52.60
2023-03-03T14:56:57.536Z,49.61
2023-03-03T15:00:02.631Z,49.22
2023-03-03T15:03:22.278Z,49.39
2023-03-03T15:06:44.178Z,48.32
2023-03-03T15:09:51.374Z,47.44
2023-03-03T15:12:54.129Z,48.30
2023-03-03T15:16:00.118Z,48.47
2023-03-03T15:19:50.549Z,48.86
2023-03-03T15:23:35.442Z,49.91
2023-03-03T15:26:37.848Z,49.59
2023-03-03T15:30:03.527Z,49.83
2023-03-03T15:33:18.164Z,49.46
2023-03-03T15:36:46.899Z,49.76
2023-03-03T15:39:55.180Z,49.53
2023-03-03T15:43:10.569Z,50.13
2023-03-03T15:46:13.270Z,50.44
2023-03-03T15:49:34.282Z,50.51
2023-03-03T15:52:39.502Z,50.73
2023-03-03T15:56:19.028Z,50.79
2023-03-03T16:00:04.002Z,50.86
2023-03-03T16:03:20.300Z,51.40
2023-03-03T16:06:50.913Z,51.74
2023-03-03T16:10:12.254Z,51.33
2023-03-03T16:13:43.079Z,51.60
2023-03-03T16:16:54.790Z,51.81
2023-03-03T16:20:25.169Z,51.96
2023-03-03T16:23:55.122Z,51.78
2023-03-03T16:27:06.481Z,52.14
2023-03-03T16:30:26.675Z,52.25
2023-03-03T16:33:44.180Z,51.71
2023-03-03T16:37:09.606Z,52.26
2023-03-03T16:40:33.824Z,52.01
2023-03-03T16:43:38.982Z,52.32
2023-03-03T16:46:45.023Z,53.19
2023-03-03T16:50:10.921Z,53.62
2023-03-03T16:53:27.468Z,54.36
2023-03-03T16:56:40.596Z,54.37
2023-03-03T16:59:51.738Z,54.65
2023-03-03T17:03:43.751Z,54.54
2023-03-03T17:06:54.103Z,55.13
2023-03-03T17:10:21.274Z,55.51
2023-03-03T17:13:44.093Z,56.02
2023-03-03T17:17:01.476Z,56.54
2023-03-03T17:20:13.866Z,57.01
2023-03-03T17:23:35.032Z,57.50
2023-03-03T17:27:03.591Z,57.56
2023-03-03T17:30:31.792Z,58.32
2023-03-03T17:33:53.435Z,58.52
2023-03-03T17:37:16.567Z,59.46
2023-03-03T17:40:47.805Z,59.65
2023-03-03T17:44:08.922Z,60.27
2023-03-03T17:47:23.945Z,60.33
2023-03-03T17:51:05.132Z,60.75
2023-03-03T17:54:26.953Z,61.24
2023-03-03T17:57:48.209Z,61.37
2023-03-03T18:01:28.829Z,62.11
2023-03-03T18:04:37.841Z,62.28
2023-03-03T18:07:57.480Z,62.88
2023-03-03T18:11:10.264Z,63.34
2023-03-03T18:14:19.296Z,63.85
2023-03-03T18:17:37.513Z,64.52
2023-03-03T18:21:06.714Z,64.82
2023-03-03T18:24:29.547Z,64.99
2023-03-03T18:27:37.575Z,65.93
2023-03-03T18:30:58.564Z,66.36
2023-03-03T18:34:08.401Z,66.50
2023-03-03T18:37:29.648Z,66.77
2023-03-03T18:40:34.218Z,67.10
2023-03-03T18:43:59.062Z,67.63
2023-03-03T18:47:01.880Z,67.94
2023-03-03T18:50:24.738Z,68.29
2023-03-03T18:53:31.064Z,68.56
2023-03-03T18:56:45.281Z,68.91
2023-03-03T18:59:53.202Z,68.97
2023-03-03T19:02:59.147Z,69.17
2023-03-03T19:06:04.591Z,69.07
2023-03-03T19:09:11.855Z,69.34
2023-03-03T19:12:16.477Z,69.51
2023-03-03T19:15:33.625Z,69.92
2023-03-03T19:18:42.610Z,70.25
2023-03-03T19:21:52.899Z,71.12
2023-03-03T19:25:08.277Z,71.63
2023-03-03T19:28:42.122Z,72.63
2023-03-03T19:32:13.794Z,72.26
2023-03-03T19:35:48.145Z,71.57
2023-03-03T19:39:09.891Z,72.01
2023-03-03T19:42:49.288Z,72.41
2023-03-03T19:46:08.414Z,72.39
2023-03-03T19:49:20.241Z,72.69
2023-03-03T19:52:47.289Z,73.29
2023-03-03T19:56:08.716Z,73.18
2023-03-03T19:59:42.357Z,73.85
2023-03-03T20:03:28.266Z,73.83
2023-03-03T20:06:59.016Z,75.04
2023-03-03T20:10:26.140Z,75.18
2023-03-03T20:13:52.612Z,74.72
2023-03-03T20:16:57.805Z,74.18
2023-03-03T20:20:25.978Z,74.44
2023-03-03T20:24:02.538Z,74.63
2023-03-03T20:27:07.051Z,75.08
2023-03-03T20:30:22.154Z,75.43
2023-03-03T20:33:34.378Z,76.38
2023-03-03T20:36:45.609Z,76.28
2023-03-03T20:40:03.470Z,75.71
2023-03-03T20:43:18.771Z,75.43
2023-03-03T20:46:45.253Z,75.91
2023-03-03T20:50:12.134Z,76.82
2023-03-03T20:53:36.451Z,77.06
2023-03-03T20:57:01.000Z,77.04
2023-03-03T21:00:21.742Z,77.20
2023-03-03T21:03:34.611Z,76.46
2023-03-03T21:06:40.773Z,76.79
2023-03-03T21:09:43.799Z,76.76
2023-03-03T21:12:46.941Z,77.44
2023-03-03T21:16:03.584Z,78.10
2023-03-03T21:19:14.408Z,79.03
2023-03-03T21:22:17.361Z,77.88
2023-03-03T21:25:46.593Z,76.78
2023-03-03T21:29:03.611Z,76.86
2023-03-03T21:32:09.041Z,77.76
2023-03-03T21:35:15.683Z,79.31
2023-03-03T21:38:39.244Z,78.77
2023-03-03T21:42:00.584Z,77.72
2023-03-03T21:45:13.542Z,78.39
2023-03-03T21:48:16.502Z,78.67
2023-03-03T21:51:21.420Z,78.73
2023-03-03T21:54:24.466Z,78.67
2023-03-03T21:57:27.872Z,78.92
2023-03-03T22:00:30.383Z,78.84
2023-03-03T22:03:34.355Z,78.48
2023-03-03T22:06:37.558Z,78.45
2023-03-03T22:09:40.891Z,78.68
2023-03-03T22:12:43.487Z,78.93
2023-03-03T22:15:48.006Z,77.37
2023-03-03T22:18:50.691Z,78.15
2023-03-03T22:21:53.881Z,79.08
2023-03-03T22:24:56.504Z,78.21
2023-03-03T22:27:59.375Z,79.27
2023-03-03T22:31:01.984Z,79.45
2023-03-03T22:34:05.315Z,79.21
2023-03-03T22:37:08.488Z,79.61
2023-03-03T22:40:13.620Z,79.43
2023-03-03T22:43:16.662Z,79.18
2023-03-03T22:46:21.799Z,79.22
2023-03-03T22:49:24.837Z,79.53
2023-03-03T22:52:27.789Z,79.50
2023-03-03T22:55:32.108Z,79.53
2023-03-03T22:58:34.929Z,79.33
2023-03-03T23:01:37.459Z,79.68
2023-03-03T23:04:40.563Z,80.81
2023-03-03T23:07:43.226Z,78.90
2023-03-03T23:10:46.360Z,80.39
2023-03-03T23:13:51.018Z,79.85
2023-03-03T23:16:53.894Z,80.39
2023-03-03T23:19:56.518Z,80.64
2023-03-03T23:22:59.858Z,80.20
2023-03-03T23:26:02.418Z,79.77
2023-03-03T23:29:05.500Z,79.34
2023-03-03T23:32:08.079Z,80.45
2023-03-03T23:35:11.018Z,80.71
2023-03-03T23:38:17.542Z,80.45
2023-03-03T23:41:22.044Z,81.17
2023-03-03T23:44:24.712Z,81.16
2023-03-03T23:47:27.776Z,81.42
2023-03-03T23:50:33.200Z,80.69
2023-03-03T23:53:36.157Z,81.28
2023-03-03T23:56:38.846Z,80.77
2023-03-03T23:59:41.739Z,81.49
